HIE weather

Mount Washington Regional Airport
Whitefield, New Hampshire, United States

Public forecast

Using degrees Fahrenheit for public forecast. Weather courtesy of forecast.io.

Current aviation weather report (METAR) for Mount Washington Regional Airport

Retrieved 2019/10/18 15:09 UTC (22 minutes ago):

KHIE 181509Z AUTO 29010KT 10SM -RA SCT013 OVC020 06/04 A2968 RMK AO2 P0000 T00610044

Aviation forecast (TAF) for Mount Washington Regional Airport

Retrieved 2019/10/18 12:27 UTC (3 hours ago):

TAF KHIE 181125Z 1812/1912 28009KT P6SM BKN020 FM190100 29009G16KT 6SM BR BKN014